Time;durP1;ratioP1;P1;durP2;ratioP2;P2;SDS_P1;SDS_P2;PMS_P1;PMS_P2;Temp;Humidity;BMP_temperature;BMP_pressure;BME280_temperature;BME280_humidity;BME280_pressure;Samples;Min_cycle;Max_cycle;Signal;HPM_P1;HPM_P2
2022/10/15 00:00:27;;;;;;;44.90;23.45;;;9.20;99.90;;;;;;5202223;28;20218;-74
2022/10/15 00:02:58;;;;;;;45.30;24.48;;;9.30;99.90;;;;;;5210547;28;20436;-74
2022/10/15 00:05:30;;;;;;;47.53;23.60;;;9.30;99.90;;;;;;5225533;28;20044;-74
2022/10/15 00:08:01;;;;;;;46.78;22.80;;;9.40;99.90;;;;;;5241993;28;20020;-75
2022/10/15 00:10:36;;;;;;;43.33;21.60;;;9.40;99.90;;;;;;5214605;28;20029;-75
2022/10/15 00:13:07;;;;;;;44.70;21.88;;;9.40;99.90;;;;;;5213735;28;20040;-75
2022/10/15 00:15:38;;;;;;;42.40;22.38;;;9.50;99.90;;;;;;5221433;28;20051;-74
2022/10/15 00:18:09;;;;;;;44.83;23.73;;;9.50;99.90;;;;;;5218097;28;20044;-74
2022/10/15 00:20:43;;;;;;;47.10;25.90;;;9.50;99.90;;;;;;5218136;28;20032;-74
2022/10/15 00:23:15;;;;;;;44.40;21.73;;;9.50;99.90;;;;;;5202770;28;20037;-74
2022/10/15 00:25:46;;;;;;;45.97;22.05;;;9.50;99.90;;;;;;5209050;28;20036;-74
2022/10/15 00:28:20;;;;;;;41.70;22.50;;;9.50;99.90;;;;;;5208552;28;20026;-74
2022/10/15 00:30:58;;;;;;;42.97;23.10;;;9.50;99.90;;;;;;5208139;28;20031;-74
2022/10/15 00:33:29;;;;;;;45.00;22.00;;;9.60;99.90;;;;;;5198621;28;20016;-74
2022/10/15 00:36:10;;;;;;;42.58;22.20;;;9.60;99.90;;;;;;5222999;28;20025;-75
2022/10/15 00:38:42;;;;;;;43.13;21.63;;;9.60;99.90;;;;;;5241547;28;20031;-75
2022/10/15 00:41:24;;;;;;;41.17;22.25;;;9.60;99.90;;;;;;5222291;28;20039;-75
2022/10/15 00:44:20;;;;;;;36.03;21.25;;;9.60;99.90;;;;;;5210643;28;20029;-74
2022/10/15 00:47:15;;;;;;;42.13;21.35;;;9.60;99.90;;;;;;5218551;28;20044;-74
2022/10/15 00:49:55;;;;;;;43.40;21.05;;;9.50;99.90;;;;;;5220457;28;20027;-74
2022/10/15 00:52:52;;;;;;;38.50;20.25;;;9.60;99.90;;;;;;5203619;28;20026;-74
2022/10/15 00:55:44;;;;;;;45.35;22.98;;;9.60;99.90;;;;;;5178496;28;20048;-74
2022/10/15 00:58:27;;;;;;;46.33;23.83;;;9.60;99.90;;;;;;5200053;28;20025;-74
2022/10/15 01:00:59;;;;;;;41.55;21.85;;;9.70;99.90;;;;;;5207190;28;20092;-75
2022/10/15 01:03:34;;;;;;;42.25;21.75;;;9.70;99.90;;;;;;5218641;28;20564;-73
2022/10/15 01:06:13;;;;;;;43.53;23.23;;;9.60;99.90;;;;;;5196609;28;20051;-75
2022/10/15 01:08:47;;;;;;;47.13;23.15;;;9.70;99.90;;;;;;5224956;28;20016;-75
2022/10/15 01:11:40;;;;;;;49.13;23.25;;;9.70;99.90;;;;;;5241138;28;20017;-74
2022/10/15 01:14:39;;;;;;;42.42;20.30;;;9.70;99.90;;;;;;5230748;28;20057;-74
2022/10/15 01:17:31;;;;;;;44.40;23.58;;;9.70;99.90;;;;;;5220566;28;20063;-74
2022/10/15 01:20:43;;;;;;;44.33;23.17;;;9.70;99.90;;;;;;5235495;28;20523;-73
2022/10/15 01:23:39;;;;;;;47.83;23.35;;;9.80;99.90;;;;;;5224824;28;20023;-74
2022/10/15 01:26:52;;;;;;;39.38;20.58;;;9.90;99.90;;;;;;5225356;28;20165;-75
2022/10/15 01:29:49;;;;;;;46.78;23.50;;;9.90;99.90;;;;;;5221854;28;20043;-75
2022/10/15 01:32:27;;;;;;;45.83;22.23;;;9.90;99.90;;;;;;5208556;28;20029;-75
2022/10/15 01:35:31;;;;;;;48.85;25.00;;;10.00;99.90;;;;;;5227265;28;20021;-73
2022/10/15 01:38:12;;;;;;;46.85;22.92;;;10.00;99.90;;;;;;5200328;28;20043;-75
2022/10/15 01:40:50;;;;;;;39.33;20.58;;;10.00;99.90;;;;;;5224204;28;20036;-74
2022/10/15 01:43:32;;;;;;;41.72;21.40;;;10.00;99.90;;;;;;5212434;28;20017;-74
2022/10/15 01:46:18;;;;;;;39.22;22.63;;;10.00;99.90;;;;;;5212113;28;20028;-74
2022/10/15 01:48:54;;;;;;;44.25;22.70;;;10.00;99.90;;;;;;5223740;28;20021;-74
2022/10/15 01:51:27;;;;;;;41.83;22.85;;;10.10;99.90;;;;;;5193609;28;20037;-73
2022/10/15 01:54:04;;;;;;;41.50;23.27;;;10.10;99.90;;;;;;5192825;28;20021;-74
2022/10/15 01:56:37;;;;;;;38.45;21.35;;;10.10;99.90;;;;;;5207473;28;20045;-74
2022/10/15 01:59:09;;;;;;;39.97;20.73;;;10.10;99.90;;;;;;5223378;28;20033;-73
2022/10/15 02:01:45;;;;;;;36.35;20.70;;;10.10;99.90;;;;;;5223576;28;20032;-74
2022/10/15 02:04:21;;;;;;;40.30;20.75;;;10.10;99.90;;;;;;5213014;28;20025;-74
2022/10/15 02:07:09;;;;;;;37.50;21.65;;;10.10;99.90;;;;;;5225061;28;20042;-72
2022/10/15 02:10:08;;;;;;;35.22;20.40;;;10.00;99.90;;;;;;5224101;28;20047;-74
2022/10/15 02:12:54;;;;;;;37.08;19.88;;;10.10;99.90;;;;;;5199397;28;20353;-74
2022/10/15 02:15:44;;;;;;;34.85;18.88;;;10.10;99.90;;;;;;5194910;28;20032;-74
2022/10/15 02:18:38;;;;;;;36.88;19.35;;;10.10;99.90;;;;;;5202663;28;20018;-74
2022/10/15 02:21:18;;;;;;;37.95;20.38;;;10.20;99.90;;;;;;5204109;28;20426;-74
2022/10/15 02:24:01;;;;;;;32.80;18.77;;;10.20;99.90;;;;;;5223305;28;20027;-74
2022/10/15 02:26:34;;;;;;;33.88;19.10;;;10.30;99.90;;;;;;5206393;28;20047;-74
2022/10/15 02:29:09;;;;;;;39.35;20.65;;;10.30;99.90;;;;;;5205740;28;20031;-74
2022/10/15 02:31:48;;;;;;;38.10;20.90;;;10.30;99.90;;;;;;5221898;28;20029;-74
2022/10/15 02:34:26;;;;;;;36.55;20.63;;;10.40;99.90;;;;;;5229321;28;20039;-75
2022/10/15 02:37:00;;;;;;;34.63;19.27;;;10.40;99.90;;;;;;5219479;28;20024;-75
2022/10/15 02:39:33;;;;;;;35.85;19.92;;;10.40;99.90;;;;;;5221130;28;20025;-73
2022/10/15 02:42:06;;;;;;;32.45;19.35;;;10.30;99.90;;;;;;5217706;28;20032;-73
2022/10/15 02:44:38;;;;;;;37.83;20.10;;;10.30;99.90;;;;;;5224321;28;20059;-73
2022/10/15 02:47:10;;;;;;;45.05;20.85;;;10.20;99.90;;;;;;5205660;28;20043;-73
2022/10/15 02:49:44;;;;;;;31.95;18.52;;;10.10;99.90;;;;;;5204468;28;20021;-73
2022/10/15 02:52:15;;;;;;;36.28;20.75;;;10.10;99.90;;;;;;5224987;28;20017;-74
2022/10/15 02:54:46;;;;;;;35.40;18.08;;;10.00;99.90;;;;;;5200279;28;20063;-73
2022/10/15 02:57:17;;;;;;;42.58;19.42;;;10.00;99.90;;;;;;5184361;28;20602;-74
2022/10/15 02:59:51;;;;;;;34.72;18.70;;;10.00;99.90;;;;;;5187774;28;20044;-73
2022/10/15 03:02:24;;;;;;;36.42;20.02;;;10.00;99.90;;;;;;5199947;28;20380;-73
2022/10/15 03:04:55;;;;;;;36.75;19.50;;;10.00;99.90;;;;;;5229301;28;20041;-73
2022/10/15 03:07:31;;;;;;;40.47;20.50;;;10.00;99.90;;;;;;5224588;28;20043;-74
2022/10/15 03:10:03;;;;;;;40.85;20.83;;;10.00;99.90;;;;;;5216877;28;20009;-73
2022/10/15 03:12:37;;;;;;;40.58;20.45;;;10.10;99.90;;;;;;5212887;28;20032;-73
2022/10/15 03:15:09;;;;;;;41.28;21.70;;;10.10;99.90;;;;;;5222246;28;20035;-73
2022/10/15 03:17:45;;;;;;;36.58;19.55;;;10.10;99.90;;;;;;5222519;28;20556;-73
2022/10/15 03:20:19;;;;;;;37.13;19.25;;;10.10;99.90;;;;;;5221963;28;20035;-73
2022/10/15 03:22:50;;;;;;;36.35;19.52;;;10.10;99.90;;;;;;5185372;28;20044;-73
2022/10/15 03:25:21;;;;;;;42.53;20.63;;;10.00;99.90;;;;;;5200951;28;20021;-73
2022/10/15 03:27:52;;;;;;;36.72;19.23;;;9.90;99.90;;;;;;5200292;28;20039;-74
2022/10/15 03:30:24;;;;;;;38.80;20.50;;;10.00;99.90;;;;;;5201600;28;20490;-74
2022/10/15 03:32:58;;;;;;;37.22;19.98;;;9.90;99.90;;;;;;5193868;28;20262;-74
2022/10/15 03:35:29;;;;;;;35.70;19.80;;;10.00;99.90;;;;;;5235619;28;20049;-74
2022/10/15 03:38:03;;;;;;;33.72;19.63;;;10.00;99.90;;;;;;5212196;28;20033;-73
2022/10/15 03:40:37;;;;;;;35.63;20.13;;;10.00;99.90;;;;;;5210456;28;20395;-74
2022/10/15 03:43:11;;;;;;;37.07;19.87;;;10.00;99.90;;;;;;5214526;28;20029;-74
2022/10/15 03:45:42;;;;;;;33.38;19.67;;;10.00;99.90;;;;;;5221824;28;20298;-74
2022/10/15 03:48:14;;;;;;;37.05;20.70;;;10.00;99.90;;;;;;5221434;28;20062;-74
2022/10/15 03:50:48;;;;;;;37.13;20.77;;;10.00;99.90;;;;;;5221436;28;20025;-74
2022/10/15 03:53:19;;;;;;;41.42;22.35;;;10.00;99.90;;;;;;5204261;28;20025;-74
2022/10/15 03:55:53;;;;;;;41.97;21.00;;;10.00;99.90;;;;;;5221022;28;20454;-73
2022/10/15 03:58:24;;;;;;;36.13;20.87;;;10.10;99.90;;;;;;5221102;28;20025;-73
2022/10/15 04:00:58;;;;;;;35.75;20.50;;;10.10;99.90;;;;;;5203667;28;20021;-73
2022/10/15 04:03:35;;;;;;;36.88;19.83;;;10.10;99.90;;;;;;5197370;28;20044;-73
2022/10/15 04:06:06;;;;;;;34.03;19.35;;;10.10;99.90;;;;;;5191616;28;20052;-73
2022/10/15 04:08:38;;;;;;;34.25;18.38;;;10.10;99.90;;;;;;5217216;28;20027;-73
2022/10/15 04:11:09;;;;;;;38.13;20.08;;;10.20;99.90;;;;;;5185605;28;20054;-73
2022/10/15 04:13:43;;;;;;;39.10;20.13;;;10.10;99.90;;;;;;5213456;28;20028;-73
2022/10/15 04:16:15;;;;;;;37.28;19.40;;;10.20;99.90;;;;;;5221356;28;20054;-74
2022/10/15 04:18:49;;;;;;;35.17;18.42;;;10.20;99.90;;;;;;5220656;28;20028;-74
2022/10/15 04:21:20;;;;;;;39.05;20.48;;;10.10;99.90;;;;;;5220915;28;20040;-75
2022/10/15 04:23:54;;;;;;;42.05;21.15;;;10.20;99.90;;;;;;5221177;28;20261;-75
2022/10/15 04:26:26;;;;;;;40.15;21.10;;;10.20;99.90;;;;;;5210685;28;20037;-75
2022/10/15 04:28:58;;;;;;;37.83;19.52;;;10.20;99.90;;;;;;5203564;28;20416;-74
2022/10/15 04:31:32;;;;;;;36.28;19.33;;;10.20;99.90;;;;;;5199487;28;20032;-75
2022/10/15 04:34:04;;;;;;;36.95;21.02;;;10.30;99.90;;;;;;5221221;28;20028;-74
2022/10/15 04:36:38;;;;;;;38.05;19.60;;;10.30;99.90;;;;;;5216855;28;20037;-75
2022/10/15 04:39:09;;;;;;;35.30;18.88;;;10.30;99.90;;;;;;5219240;28;20355;-75
2022/10/15 04:41:42;;;;;;;37.65;19.58;;;10.40;99.90;;;;;;5221243;28;20031;-74
2022/10/15 04:44:16;;;;;;;35.60;20.35;;;10.40;99.90;;;;;;5186372;28;20051;-74
2022/10/15 04:46:47;;;;;;;32.40;18.25;;;10.50;99.90;;;;;;5220531;28;20024;-74
2022/10/15 04:49:21;;;;;;;38.25;20.38;;;10.50;99.90;;;;;;5202244;28;20028;-74
2022/10/15 04:51:53;;;;;;;32.60;18.38;;;10.40;99.90;;;;;;5216079;28;20026;-74
2022/10/15 04:54:25;;;;;;;33.55;19.42;;;10.50;99.90;;;;;;5217794;28;20028;-74
2022/10/15 04:56:56;;;;;;;35.42;19.50;;;10.40;99.90;;;;;;5193030;28;20364;-74
2022/10/15 04:59:27;;;;;;;34.28;20.27;;;10.50;99.90;;;;;;5210754;28;20025;-74
2022/10/15 05:01:59;;;;;;;39.15;20.88;;;10.50;99.90;;;;;;5194957;28;20049;-74
2022/10/15 05:04:30;;;;;;;32.33;18.92;;;10.50;99.90;;;;;;5168381;28;20127;-74
2022/10/15 05:07:04;;;;;;;38.50;21.17;;;10.50;99.90;;;;;;5196256;28;20274;-75
2022/10/15 05:09:35;;;;;;;39.90;21.33;;;10.50;99.90;;;;;;5211661;28;20033;-75
2022/10/15 05:12:06;;;;;;;39.47;18.83;;;10.50;99.90;;;;;;5192569;28;20083;-75
2022/10/15 05:14:37;;;;;;;39.90;21.08;;;10.60;99.90;;;;;;5210957;28;20022;-75
2022/10/15 05:17:11;;;;;;;35.58;20.05;;;10.60;99.90;;;;;;5211830;28;20033;-75
2022/10/15 05:19:47;;;;;;;36.72;18.77;;;10.70;99.90;;;;;;5212112;28;20025;-75
2022/10/15 05:22:21;;;;;;;38.13;20.90;;;10.70;99.90;;;;;;5191653;28;20032;-75
2022/10/15 05:24:55;;;;;;;36.35;20.15;;;10.70;99.90;;;;;;5194875;28;20524;-75
2022/10/15 05:27:28;;;;;;;37.70;20.13;;;10.60;99.90;;;;;;5207593;28;20034;-75
2022/10/15 05:30:03;;;;;;;39.67;20.60;;;10.60;99.90;;;;;;5209542;28;20235;-75
2022/10/15 05:32:34;;;;;;;38.80;21.05;;;10.60;99.90;;;;;;5211747;28;20084;-75
2022/10/15 05:35:06;;;;;;;37.47;20.38;;;10.60;99.90;;;;;;5211997;28;20513;-76
2022/10/15 05:37:37;;;;;;;49.00;24.05;;;10.70;99.90;;;;;;5200654;28;20044;-75
2022/10/15 05:40:09;;;;;;;36.58;20.85;;;10.70;99.90;;;;;;5198305;28;20496;-74
2022/10/15 05:42:40;;;;;;;42.67;21.15;;;10.80;99.90;;;;;;5199634;28;20029;-75
2022/10/15 05:45:14;;;;;;;41.97;22.48;;;10.80;99.90;;;;;;5200923;28;20368;-75
2022/10/15 05:47:46;;;;;;;40.75;23.67;;;10.80;99.90;;;;;;5209640;28;20064;-75
2022/10/15 05:50:20;;;;;;;45.30;22.23;;;10.80;99.90;;;;;;5215800;28;20043;-75
2022/10/15 05:52:53;;;;;;;40.50;23.55;;;10.80;99.90;;;;;;5211440;28;20028;-75
2022/10/15 05:55:24;;;;;;;37.65;19.20;;;10.80;99.90;;;;;;5192478;28;20033;-74
2022/10/15 05:58:03;;;;;;;45.90;23.77;;;10.80;99.90;;;;;;5199549;28;20047;-76
2022/10/15 06:00:35;;;;;;;40.15;21.88;;;10.80;99.90;;;;;;5211142;28;20025;-75
2022/10/15 06:03:09;;;;;;;46.42;23.58;;;10.90;99.90;;;;;;5220101;28;20033;-74
2022/10/15 06:05:40;;;;;;;51.38;25.10;;;10.90;99.90;;;;;;5202106;28;20049;-75
2022/10/15 06:08:12;;;;;;;37.95;21.33;;;10.90;99.90;;;;;;5213672;28;20027;-74
2022/10/15 06:10:46;;;;;;;42.90;23.67;;;11.00;99.90;;;;;;5196033;28;20070;-74
2022/10/15 06:13:17;;;;;;;45.55;23.80;;;11.10;99.90;;;;;;5202934;28;20024;-74
2022/10/15 06:15:57;;;;;;;44.87;23.53;;;11.10;99.90;;;;;;5211207;28;20020;-75
2022/10/15 06:18:28;;;;;;;42.88;23.30;;;11.20;99.90;;;;;;5218091;28;20299;-75
2022/10/15 06:21:07;;;;;;;51.65;26.40;;;11.30;99.90;;;;;;5201648;28;20035;-74
2022/10/15 06:23:44;;;;;;;50.33;24.95;;;11.40;99.90;;;;;;5203934;28;20040;-74
2022/10/15 06:26:28;;;;;;;50.60;26.08;;;11.50;99.90;;;;;;5190624;28;20033;-75
2022/10/15 06:29:00;;;;;;;43.90;24.67;;;11.60;99.90;;;;;;5212280;28;20032;-74
2022/10/15 06:31:31;;;;;;;55.70;27.80;;;11.70;99.90;;;;;;5219132;28;20594;-75
2022/10/15 06:34:05;;;;;;;47.13;28.17;;;11.80;99.90;;;;;;5214580;28;20513;-76
2022/10/15 06:36:37;;;;;;;49.10;26.65;;;11.90;99.90;;;;;;5200856;28;20041;-73
2022/10/15 06:39:11;;;;;;;52.03;27.48;;;12.00;99.90;;;;;;5200512;28;20032;-73
2022/10/15 06:41:45;;;;;;;39.25;23.75;;;12.10;99.90;;;;;;5210693;28;20039;-74
2022/10/15 06:44:22;;;;;;;40.67;22.77;;;12.20;99.90;;;;;;5203895;28;20033;-76
2022/10/15 06:46:54;;;;;;;42.60;21.52;;;12.10;99.90;;;;;;5205491;28;20028;-74
2022/10/15 06:49:25;;;;;;;41.42;23.70;;;12.10;99.90;;;;;;5200932;28;20025;-75
2022/10/15 06:52:01;;;;;;;42.22;23.55;;;12.10;99.90;;;;;;5201929;28;20029;-76
2022/10/15 06:54:32;;;;;;;41.65;23.48;;;12.10;99.90;;;;;;5185559;28;20029;-75
2022/10/15 06:57:03;;;;;;;45.17;25.02;;;12.10;99.90;;;;;;5204706;28;20046;-74
2022/10/15 06:59:37;;;;;;;38.53;22.30;;;12.10;99.90;;;;;;5227091;28;20025;-75
2022/10/15 07:02:09;;;;;;;48.13;28.60;;;12.20;99.90;;;;;;5200454;28;20040;-74
2022/10/15 07:04:41;;;;;;;47.67;27.08;;;12.30;99.90;;;;;;5227600;28;20036;-75
2022/10/15 07:07:15;;;;;;;47.33;25.48;;;12.30;99.90;;;;;;5209213;28;20040;-73
2022/10/15 07:09:46;;;;;;;41.30;24.58;;;12.40;99.90;;;;;;5241077;28;20028;-73
2022/10/15 07:12:20;;;;;;;41.58;24.20;;;12.40;99.90;;;;;;5213301;28;20029;-76
2022/10/15 07:14:54;;;;;;;40.50;24.23;;;12.50;99.90;;;;;;5216830;28;20039;-74
2022/10/15 07:17:30;;;;;;;45.80;25.55;;;12.50;99.90;;;;;;5206492;28;20039;-74
2022/10/15 07:20:01;;;;;;;44.67;25.88;;;12.50;99.90;;;;;;5211235;28;20029;-74
2022/10/15 07:22:35;;;;;;;44.60;26.88;;;12.40;99.90;;;;;;5204967;28;20025;-75
2022/10/15 07:25:12;;;;;;;46.53;26.33;;;12.40;99.90;;;;;;5205462;28;20031;-76
2022/10/15 07:27:45;;;;;;;45.92;26.77;;;12.50;99.90;;;;;;5221532;28;20029;-76
2022/10/15 07:30:16;;;;;;;47.42;26.13;;;12.70;99.90;;;;;;5166606;28;20059;-76
2022/10/15 07:32:50;;;;;;;45.03;27.67;;;12.80;99.90;;;;;;5222019;28;20024;-76
2022/10/15 07:35:21;;;;;;;48.03;27.23;;;13.00;99.90;;;;;;5233547;28;20028;-76
2022/10/15 07:37:52;;;;;;;53.70;29.77;;;13.10;99.90;;;;;;5243151;28;20031;-76
2022/10/15 07:40:24;;;;;;;49.38;28.40;;;13.20;99.90;;;;;;5230426;28;20029;-75
2022/10/15 07:42:57;;;;;;;44.00;26.20;;;13.30;99.90;;;;;;5222396;28;20290;-75
2022/10/15 07:45:30;;;;;;;47.38;25.33;;;13.40;99.90;;;;;;5204469;28;20017;-76
2022/10/15 07:48:01;;;;;;;45.92;27.30;;;13.60;99.90;;;;;;5223036;28;20490;-77
2022/10/15 07:50:32;;;;;;;45.05;26.67;;;13.80;99.90;;;;;;5233909;28;20032;-75
2022/10/15 07:53:06;;;;;;;44.42;25.10;;;13.90;99.90;;;;;;5225888;28;20032;-75
2022/10/15 07:55:40;;;;;;;39.83;24.33;;;13.90;99.90;;;;;;5183887;28;20033;-75
2022/10/15 07:58:11;;;;;;;42.70;24.83;;;14.10;99.90;;;;;;5207362;28;20047;-75
2022/10/15 08:00:45;;;;;;;41.03;24.33;;;14.10;99.90;;;;;;5207774;28;20280;-75
2022/10/15 08:03:16;;;;;;;43.13;25.75;;;14.20;99.90;;;;;;5223524;28;20033;-75
2022/10/15 08:05:51;;;;;;;41.70;23.88;;;14.20;99.90;;;;;;5184068;28;20138;-75
2022/10/15 08:08:23;;;;;;;41.78;23.27;;;14.30;99.90;;;;;;5209742;28;20349;-75
2022/10/15 08:10:54;;;;;;;41.47;25.67;;;14.40;99.90;;;;;;5213828;28;20522;-75
2022/10/15 08:13:28;;;;;;;41.70;25.73;;;14.50;99.90;;;;;;5231964;28;20017;-75
2022/10/15 08:15:59;;;;;;;41.28;25.98;;;14.70;99.90;;;;;;5231520;28;20027;-75
2022/10/15 08:18:36;;;;;;;46.72;27.52;;;14.80;99.90;;;;;;5216614;28;20548;-75
2022/10/15 08:21:08;;;;;;;39.58;25.75;;;14.90;99.90;;;;;;5211762;28;20272;-74
2022/10/15 08:23:39;;;;;;;40.22;24.08;;;14.90;99.90;;;;;;5176409;28;20898;-75
2022/10/15 08:26:10;;;;;;;40.80;24.20;;;14.90;99.90;;;;;;5179982;28;20035;-75
2022/10/15 08:28:41;;;;;;;37.90;24.75;;;14.80;99.90;;;;;;5183185;28;20098;-75
2022/10/15 08:31:18;;;;;;;44.40;24.33;;;14.90;99.90;;;;;;5224119;28;20017;-75
2022/10/15 08:33:49;;;;;;;46.30;24.30;;;14.80;99.90;;;;;;5211497;28;20021;-75
2022/10/15 08:36:20;;;;;;;39.05;24.75;;;14.90;99.90;;;;;;5215254;28;20051;-76
2022/10/15 08:38:52;;;;;;;44.45;25.25;;;14.70;99.90;;;;;;5218594;28;20024;-76
2022/10/15 08:41:32;;;;;;;41.28;24.67;;;14.80;99.90;;;;;;5208597;28;20027;-75
2022/10/15 08:44:05;;;;;;;40.67;24.27;;;14.80;99.90;;;;;;5231788;28;20032;-76
2022/10/15 08:46:43;;;;;;;41.58;24.30;;;14.90;99.90;;;;;;5229996;28;20674;-75
2022/10/15 08:49:37;;;;;;;41.08;26.83;;;14.90;99.90;;;;;;5224747;28;20051;-75
2022/10/15 08:52:38;;;;;;;49.17;26.30;;;15.10;99.90;;;;;;5212042;28;20309;-76
2022/10/15 08:55:15;;;;;;;39.78;25.83;;;15.00;99.90;;;;;;5202387;28;20036;-76
2022/10/15 08:58:12;;;;;;;41.58;25.27;;;15.10;99.90;;;;;;5233085;28;20332;-75
2022/10/15 09:00:51;;;;;;;41.75;25.20;;;15.10;99.90;;;;;;5227013;28;20024;-75
2022/10/15 09:03:29;;;;;;;41.85;25.60;;;15.10;99.90;;;;;;5201989;28;20322;-75
2022/10/15 09:06:03;;;;;;;38.47;24.15;;;15.20;99.90;;;;;;5206589;28;20041;-75
2022/10/15 09:09:02;;;;;;;39.53;25.40;;;15.30;99.90;;;;;;5210736;28;20020;-75
2022/10/15 09:11:54;;;;;;;42.25;25.77;;;15.40;99.90;;;;;;5232101;28;20059;-75
2022/10/15 09:14:30;;;;;;;39.45;25.30;;;15.40;99.90;;;;;;5234438;28;20196;-75
2022/10/15 09:17:06;;;;;;;43.70;25.77;;;15.50;99.90;;;;;;5202338;28;20028;-73
2022/10/15 09:19:37;;;;;;;37.15;23.65;;;15.70;99.90;;;;;;5150440;28;20036;-74
2022/10/15 09:22:13;;;;;;;51.88;26.52;;;15.60;99.90;;;;;;5182789;28;20021;-75
2022/10/15 09:24:47;;;;;;;41.72;25.38;;;15.60;99.90;;;;;;5221946;28;20581;-74
2022/10/15 09:27:35;;;;;;;43.28;25.83;;;15.60;99.90;;;;;;5210882;28;20033;-73
2022/10/15 09:30:22;;;;;;;37.80;23.35;;;15.60;99.90;;;;;;5198486;28;20035;-74
2022/10/15 09:33:21;;;;;;;34.10;22.88;;;15.50;99.90;;;;;;5229981;28;20500;-73
2022/10/15 09:36:03;;;;;;;38.25;23.35;;;15.50;99.90;;;;;;5219127;28;20032;-73
2022/10/15 09:38:55;;;;;;;34.42;22.70;;;15.40;99.90;;;;;;5235227;28;20040;-73
2022/10/15 09:42:03;;;;;;;38.08;23.48;;;15.20;99.90;;;;;;5234022;28;20383;-74
2022/10/15 09:44:42;;;;;;;35.92;20.92;;;15.00;99.90;;;;;;5226937;28;20055;-73
2022/10/15 09:47:34;;;;;;;35.53;20.67;;;15.00;99.90;;;;;;5231812;28;20045;-75
2022/10/15 09:50:08;;;;;;;34.97;21.85;;;15.00;99.90;;;;;;5235554;28;20040;-73
2022/10/15 09:52:51;;;;;;;32.72;20.45;;;15.10;99.90;;;;;;5209445;28;20039;-73
2022/10/15 09:55:32;;;;;;;34.63;20.70;;;15.20;99.90;;;;;;5228423;28;20029;-74
2022/10/15 09:58:17;;;;;;;36.83;21.23;;;15.40;99.90;;;;;;5231843;28;20031;-74
2022/10/15 10:00:56;;;;;;;29.88;19.98;;;15.50;99.90;;;;;;5206087;28;20036;-73
2022/10/15 10:03:32;;;;;;;33.30;20.83;;;15.60;99.90;;;;;;5233370;28;20039;-74
2022/10/15 10:06:14;;;;;;;34.53;21.33;;;15.60;99.90;;;;;;5213159;28;20069;-75
2022/10/15 10:08:58;;;;;;;33.92;21.17;;;15.70;99.90;;;;;;5241091;28;20031;-74
2022/10/15 10:11:47;;;;;;;36.07;21.57;;;15.80;99.90;;;;;;5201770;28;20042;-75
2022/10/15 10:14:38;;;;;;;33.20;21.33;;;16.00;99.90;;;;;;5222397;28;20825;-74
2022/10/15 10:17:19;;;;;;;32.38;20.92;;;16.20;99.90;;;;;;5230624;28;20016;-72
2022/10/15 10:20:11;;;;;;;31.48;19.95;;;16.40;99.90;;;;;;5234984;28;20024;-73
2022/10/15 10:22:53;;;;;;;34.72;21.98;;;16.60;99.90;;;;;;5228400;28;20704;-75
2022/10/15 10:25:43;;;;;;;33.65;21.90;;;16.70;99.90;;;;;;5233190;28;20035;-74
2022/10/15 10:28:24;;;;;;;34.17;21.33;;;16.70;99.90;;;;;;5216364;28;20025;-73
2022/10/15 10:30:55;;;;;;;32.38;21.17;;;16.80;99.90;;;;;;5235876;28;20019;-75
2022/10/15 10:33:41;;;;;;;31.60;19.05;;;16.80;99.90;;;;;;5237521;28;20032;-73
2022/10/15 10:36:25;;;;;;;31.58;20.33;;;16.70;99.90;;;;;;5239515;28;20019;-73
2022/10/15 10:39:12;;;;;;;29.40;20.30;;;16.60;99.90;;;;;;5229598;28;20027;-74
2022/10/15 10:42:03;;;;;;;28.55;18.92;;;16.40;99.90;;;;;;5232313;28;20029;-74
2022/10/15 10:44:40;;;;;;;31.38;19.80;;;16.20;99.90;;;;;;5229668;28;20035;-74
2022/10/15 10:47:20;;;;;;;33.95;19.90;;;16.10;99.90;;;;;;5232903;28;20025;-75
2022/10/15 10:49:57;;;;;;;33.85;20.67;;;16.00;99.90;;;;;;5232182;28;20043;-75
2022/10/15 10:52:35;;;;;;;31.88;20.42;;;15.70;99.90;;;;;;5234542;28;20035;-75
2022/10/15 10:55:28;;;;;;;31.13;19.65;;;15.50;99.90;;;;;;5233534;28;20035;-75
2022/10/15 10:58:02;;;;;;;39.13;22.83;;;15.30;99.90;;;;;;5223829;28;20475;-75
2022/10/15 11:00:54;;;;;;;32.97;21.67;;;15.20;99.90;;;;;;5218282;28;20062;-75
2022/10/15 11:03:37;;;;;;;36.30;21.42;;;15.10;99.90;;;;;;5229561;28;20047;-75
2022/10/15 11:06:14;;;;;;;31.98;19.90;;;15.00;99.90;;;;;;5225218;28;20052;-75
2022/10/15 11:09:01;;;;;;;32.63;21.02;;;14.90;99.90;;;;;;5232809;28;20032;-73
2022/10/15 11:11:52;;;;;;;44.60;25.85;;;14.90;99.90;;;;;;5233843;28;20343;-76
2022/10/15 11:14:32;;;;;;;35.83;22.75;;;14.80;99.90;;;;;;5226118;28;20556;-74
2022/10/15 11:17:48;;;;;;;42.40;23.13;;;14.70;99.90;;;;;;5225205;28;20741;-76
2022/10/15 11:20:22;;;;;;;41.75;23.58;;;14.60;99.90;;;;;;5152658;28;20026;-75
2022/10/15 11:23:11;;;;;;;36.13;22.38;;;14.50;99.90;;;;;;5153290;28;20062;-74
2022/10/15 11:25:48;;;;;;;43.40;24.33;;;14.50;99.90;;;;;;5153146;28;20026;-75
2022/10/15 11:28:19;;;;;;;44.38;24.65;;;14.60;99.90;;;;;;5153289;28;20363;-75
2022/10/15 11:30:58;;;;;;;41.35;24.60;;;14.50;99.90;;;;;;5153327;28;20042;-75
2022/10/15 11:33:50;;;;;;;44.25;25.73;;;14.50;99.90;;;;;;5156412;28;20045;-76
2022/10/15 11:36:44;;;;;;;44.78;25.27;;;14.50;99.90;;;;;;5155221;28;20468;-75
2022/10/15 11:39:21;;;;;;;52.80;25.47;;;14.50;99.90;;;;;;5152780;28;20038;-74
2022/10/15 11:42:09;;;;;;;41.92;23.25;;;14.40;99.90;;;;;;5154519;28;20544;-75
2022/10/15 11:44:51;;;;;;;40.10;23.23;;;14.30;99.90;;;;;;5153505;28;20038;-74
2022/10/15 11:47:54;;;;;;;43.65;24.73;;;14.30;99.90;;;;;;5152977;28;20504;-74
2022/10/15 11:50:54;;;;;;;41.63;23.75;;;14.30;99.90;;;;;;5153974;28;20034;-76
2022/10/15 11:53:50;;;;;;;41.22;23.48;;;14.30;99.90;;;;;;5147782;28;20039;-76
2022/10/15 11:56:30;;;;;;;41.97;23.10;;;14.30;99.90;;;;;;5207438;28;20041;-74
2022/10/15 11:59:32;;;;;;;40.97;22.60;;;14.30;99.90;;;;;;5217629;28;20032;-76
2022/10/15 12:02:12;;;;;;;44.13;24.13;;;14.30;99.90;;;;;;5227107;28;20031;-76
2022/10/15 12:04:47;;;;;;;41.53;24.45;;;14.40;99.90;;;;;;5213233;28;20049;-74
2022/10/15 12:07:27;;;;;;;42.35;23.00;;;14.40;99.90;;;;;;5222062;28;20022;-74
2022/10/15 12:10:18;;;;;;;37.92;22.13;;;14.40;99.90;;;;;;5193503;28;20029;-75
2022/10/15 12:12:59;;;;;;;38.42;22.92;;;14.50;99.90;;;;;;5192582;28;20063;-75
2022/10/15 12:15:37;;;;;;;41.55;22.77;;;14.60;99.90;;;;;;5207320;28;20028;-74
2022/10/15 12:18:26;;;;;;;40.20;23.58;;;14.70;99.90;;;;;;5223002;28;20040;-75
2022/10/15 12:20:58;;;;;;;39.38;23.17;;;14.70;99.90;;;;;;5223561;28;20482;-75
2022/10/15 12:23:35;;;;;;;36.85;22.58;;;14.80;99.90;;;;;;5215527;28;20020;-75
2022/10/15 12:26:28;;;;;;;40.72;24.08;;;14.80;99.90;;;;;;5237052;28;20017;-75
2022/10/15 12:29:02;;;;;;;37.15;22.08;;;14.70;99.90;;;;;;5230793;28;20233;-75
2022/10/15 12:31:50;;;;;;;;;;;14.60;99.90;;;;;;5229983;28;20040;-75
2022/10/15 12:34:39;;;;;;;41.13;22.80;;;14.60;99.90;;;;;;5226385;28;19901;-74
2022/10/15 12:37:18;;;;;;;36.20;22.50;;;14.60;99.90;;;;;;5233609;28;20020;-75
2022/10/15 12:40:02;;;;;;;43.25;25.38;;;14.70;99.90;;;;;;5222987;28;20025;-76
2022/10/15 12:42:37;;;;;;;42.67;24.83;;;14.60;99.90;;;;;;5213605;28;20036;-75
2022/10/15 12:45:21;;;;;;;45.55;25.70;;;14.50;99.90;;;;;;5229342;28;20014;-76
2022/10/15 12:47:53;;;;;;;41.47;25.13;;;14.50;99.90;;;;;;5225954;28;20540;-76
2022/10/15 12:50:29;;;;;;;41.25;23.63;;;14.40;99.90;;;;;;5229445;28;20028;-75
2022/10/15 12:53:24;;;;;;;42.33;25.05;;;14.40;99.90;;;;;;5218243;28;20035;-74
2022/10/15 12:56:13;;;;;;;43.55;25.20;;;14.50;99.90;;;;;;5231765;28;20550;-76
2022/10/15 12:58:50;;;;;;;49.10;26.48;;;14.50;99.90;;;;;;5233244;28;20447;-74
2022/10/15 13:01:21;;;;;;;42.90;25.23;;;14.40;99.90;;;;;;5211229;28;20029;-75
2022/10/15 13:03:55;;;;;;;49.00;27.23;;;14.40;99.90;;;;;;5229064;28;20025;-75
2022/10/15 13:06:33;;;;;;;44.03;25.90;;;14.50;99.90;;;;;;5203903;28;20058;-74
2022/10/15 13:09:20;;;;;;;45.22;25.92;;;14.60;99.90;;;;;;5218736;28;20037;-75
2022/10/15 13:11:54;;;;;;;49.38;27.90;;;14.60;99.90;;;;;;5244181;28;20021;-75
2022/10/15 13:14:41;;;;;;;47.80;26.73;;;14.50;99.90;;;;;;5227936;28;20040;-75
2022/10/15 13:17:18;;;;;;;50.00;27.48;;;14.50;99.90;;;;;;5214832;28;20025;-75
2022/10/15 13:19:56;;;;;;;50.55;27.73;;;14.50;99.90;;;;;;5207690;28;20028;-75
2022/10/15 13:22:32;;;;;;;48.38;27.70;;;14.40;99.90;;;;;;5220236;28;20028;-75